createdAt,value
2022-07-29T00:04:18.259Z,51.24
2022-07-29T00:09:19.924Z,51.61
2022-07-29T00:14:21.368Z,51.75
2022-07-29T00:19:22.779Z,51.60
2022-07-29T00:24:24.712Z,52.22
2022-07-29T00:29:34.695Z,51.65
2022-07-29T00:34:54.775Z,51.71
2022-07-29T00:39:56.398Z,52.34
2022-07-29T00:44:57.784Z,51.20
2022-07-29T00:49:59.234Z,52.06
2022-07-29T00:55:04.943Z,51.89
2022-07-29T01:00:15.708Z,51.81
2022-07-29T01:05:22.463Z,52.20
2022-07-29T01:10:25.959Z,52.40
2022-07-29T01:15:27.717Z,52.11
2022-07-29T01:20:51.111Z,52.11
2022-07-29T01:25:58.119Z,53.38
2022-07-29T01:31:03.477Z,51.84
2022-07-29T01:36:14.078Z,52.98
2022-07-29T01:41:18.625Z,52.75
2022-07-29T01:46:32.829Z,54.54
2022-07-29T01:51:41.248Z,53.76
2022-07-29T01:56:45.996Z,53.39
2022-07-29T02:01:49.363Z,52.63
2022-07-29T02:06:53.824Z,52.70
2022-07-29T02:12:00.285Z,53.32
2022-07-29T02:17:02.985Z,52.59
2022-07-29T02:22:06.833Z,53.12
2022-07-29T02:27:10.400Z,54.85
2022-07-29T02:32:14.083Z,52.83
2022-07-29T02:37:17.676Z,54.44
2022-07-29T02:42:19.504Z,53.47
2022-07-29T02:47:41.791Z,53.41
2022-07-29T02:52:55.092Z,54.84
2022-07-29T02:58:14.309Z,54.63
2022-07-29T03:03:18.333Z,54.43
2022-07-29T03:08:20.115Z,56.65
2022-07-29T03:13:22.208Z,56.72
2022-07-29T03:18:24.213Z,55.13
2022-07-29T03:23:26.941Z,55.76
2022-07-29T03:28:28.359Z,56.73
2022-07-29T03:33:31.227Z,60.40
2022-07-29T03:38:35.834Z,62.61
2022-07-29T03:43:44.079Z,61.36
2022-07-29T03:48:57.245Z,60.19
2022-07-29T03:53:59.329Z,62.49
2022-07-29T03:59:03.127Z,59.32
2022-07-29T04:04:05.816Z,59.31
2022-07-29T04:09:07.536Z,59.33
2022-07-29T04:14:11.463Z,61.74
2022-07-29T04:19:12.985Z,61.02
2022-07-29T04:24:15.065Z,68.78
2022-07-29T04:29:16.705Z,70.94
2022-07-29T04:34:18.791Z,69.02
2022-07-29T04:39:23.064Z,73.81
2022-07-29T04:44:28.446Z,67.10
2022-07-29T04:49:30.301Z,67.29
2022-07-29T04:54:31.728Z,66.37
2022-07-29T04:59:33.189Z,65.51
2022-07-29T05:04:34.636Z,76.02
2022-07-29T05:09:36.094Z,72.67
2022-07-29T05:14:37.517Z,67.21
2022-07-29T05:19:39.609Z,75.45
2022-07-29T05:24:41.737Z,76.95
2022-07-29T05:29:45.827Z,75.64
2022-07-29T05:34:50.813Z,76.70
2022-07-29T05:39:57.310Z,75.64
2022-07-29T05:45:01.017Z,68.37
2022-07-29T05:50:02.494Z,68.71
2022-07-29T05:55:06.332Z,71.43
2022-07-29T06:00:08.641Z,75.29
2022-07-29T06:05:10.558Z,72.82
2022-07-29T06:10:17.828Z,73.59
2022-07-29T06:15:19.288Z,74.13
2022-07-29T06:20:20.758Z,72.41
2022-07-29T06:25:33.177Z,72.98
2022-07-29T06:30:34.596Z,69.22
2022-07-29T06:35:38.808Z,77.67
2022-07-29T06:41:06.756Z,74.55
2022-07-29T06:46:11.189Z,78.57
2022-07-29T06:51:12.792Z,77.10
2022-07-29T06:56:14.869Z,73.56
2022-07-29T07:01:17.021Z,71.11
2022-07-29T07:06:19.679Z,74.14
2022-07-29T07:11:21.400Z,74.81
2022-07-29T07:16:22.829Z,75.40
2022-07-29T07:21:24.406Z,73.15
2022-07-29T07:26:26.226Z,70.10
2022-07-29T07:31:27.864Z,74.76
2022-07-29T07:36:29.343Z,74.68
2022-07-29T07:41:32.526Z,69.51
2022-07-29T07:46:34.112Z,70.17
2022-07-29T07:51:35.500Z,69.60
2022-07-29T07:56:36.923Z,72.31
2022-07-29T08:01:49.985Z,74.54
2022-07-29T08:06:58.289Z,79.06
2022-07-29T08:12:00.197Z,72.21
2022-07-29T08:17:01.837Z,74.19
2022-07-29T08:22:03.360Z,77.60
2022-07-29T08:27:16.603Z,79.60
2022-07-29T08:32:51.239Z,76.08
2022-07-29T08:37:48.011Z,82.55
2022-07-29T08:42:50.754Z,85.78
2022-07-29T08:47:53.304Z,80.71
2022-07-29T08:52:59.609Z,86.50
2022-07-29T08:58:02.845Z,85.68
2022-07-29T09:03:05.933Z,84.84
2022-07-29T09:08:07.893Z,84.36
2022-07-29T09:13:09.471Z,82.10
2022-07-29T09:18:20.468Z,81.91
2022-07-29T09:23:32.276Z,78.92
2022-07-29T09:28:33.744Z,76.31
2022-07-29T09:33:36.592Z,84.58
2022-07-29T09:38:38.296Z,75.77
2022-07-29T09:43:41.434Z,74.92
2022-07-29T09:48:43.032Z,78.61
2022-07-29T09:53:44.464Z,79.46
2022-07-29T09:58:45.901Z,73.56
2022-07-29T10:03:54.139Z,79.67
2022-07-29T10:09:08.564Z,74.14
2022-07-29T10:14:10.063Z,75.23
2022-07-29T10:19:11.672Z,76.26
2022-07-29T10:24:14.613Z,75.14
2022-07-29T10:29:16.693Z,74.32
2022-07-29T10:34:37.836Z,72.09
2022-07-29T10:39:53.193Z,75.60
2022-07-29T10:44:55.450Z,75.06
2022-07-29T10:50:01.441Z,74.93
2022-07-29T10:55:05.670Z,73.43
2022-07-29T11:00:09.883Z,73.64
2022-07-29T11:05:14.501Z,69.46
2022-07-29T11:10:16.302Z,71.24
2022-07-29T11:15:22.162Z,70.29
2022-07-29T11:20:46.674Z,69.64
2022-07-29T11:26:26.759Z,69.31
2022-07-29T11:31:42.691Z,68.41
2022-07-29T11:37:14.918Z,68.56
2022-07-29T11:42:32.074Z,68.10
2022-07-29T11:47:39.574Z,67.79
2022-07-29T11:52:49.670Z,65.68
2022-07-29T11:58:03.901Z,64.83
2022-07-29T12:03:08.856Z,63.72
2022-07-29T12:08:14.634Z,64.73
2022-07-29T12:13:18.470Z,63.52
2022-07-29T12:18:24.053Z,62.31
2022-07-29T12:23:25.826Z,61.95
2022-07-29T12:28:31.984Z,65.04
2022-07-29T12:33:35.224Z,64.31
2022-07-29T12:38:36.926Z,63.43
2022-07-29T12:43:38.383Z,65.20
2022-07-29T12:48:43.102Z,64.71
2022-07-29T12:54:04.555Z,65.11
2022-07-29T12:59:19.594Z,65.41
2022-07-29T13:04:32.732Z,64.98
2022-07-29T13:09:46.648Z,64.99
2022-07-29T13:14:50.204Z,64.23
2022-07-29T13:19:54.208Z,63.87
2022-07-29T13:24:58.329Z,63.86
2022-07-29T13:30:01.896Z,63.66
2022-07-29T13:35:06.793Z,63.27
2022-07-29T13:40:09.431Z,62.11
2022-07-29T13:45:11.829Z,61.86
2022-07-29T13:50:13.232Z,61.08
2022-07-29T13:55:14.648Z,61.06
2022-07-29T14:00:17.131Z,61.89
2022-07-29T14:05:18.549Z,61.85
2022-07-29T14:10:20.388Z,58.99
2022-07-29T14:15:21.977Z,58.57
2022-07-29T14:20:23.565Z,58.51
2022-07-29T14:25:25.094Z,59.16
2022-07-29T14:30:26.524Z,59.67
2022-07-29T14:35:28.001Z,57.66
2022-07-29T14:40:29.428Z,59.41
2022-07-29T14:45:31.038Z,59.09
2022-07-29T14:50:32.505Z,59.67
2022-07-29T14:55:33.991Z,59.61
2022-07-29T15:00:37.667Z,59.36
2022-07-29T15:05:39.687Z,58.45
2022-07-29T15:10:41.163Z,58.86
2022-07-29T15:15:42.769Z,58.84
2022-07-29T15:20:46.891Z,58.48
2022-07-29T15:25:48.291Z,58.26
2022-07-29T15:30:49.702Z,57.39
2022-07-29T15:35:51.110Z,57.62
2022-07-29T15:40:52.536Z,56.13
2022-07-29T15:46:12.313Z,57.36
2022-07-29T15:51:14.295Z,54.99
2022-07-29T15:56:15.691Z,55.75
2022-07-29T16:01:17.711Z,55.17
2022-07-29T16:06:19.379Z,55.61
2022-07-29T16:11:20.953Z,55.97
2022-07-29T16:16:22.375Z,57.16
2022-07-29T16:21:23.882Z,56.83
2022-07-29T16:26:25.282Z,56.52
2022-07-29T16:31:27.345Z,56.93
2022-07-29T16:36:28.838Z,56.20
2022-07-29T16:41:30.215Z,56.60
2022-07-29T16:46:31.648Z,56.95
2022-07-29T16:51:33.080Z,56.77
2022-07-29T16:56:34.551Z,56.62
2022-07-29T17:01:36.080Z,55.80
2022-07-29T17:06:40.338Z,55.43
2022-07-29T17:11:52.349Z,56.43
2022-07-29T17:17:02.400Z,57.02
2022-07-29T17:22:13.020Z,57.28
2022-07-29T17:27:17.514Z,57.10
2022-07-29T17:32:18.958Z,57.20
2022-07-29T17:37:20.380Z,56.76
2022-07-29T17:42:21.794Z,56.35
2022-07-29T17:47:23.249Z,53.54
2022-07-29T17:52:24.665Z,56.25
2022-07-29T17:57:26.187Z,54.63
2022-07-29T18:02:28.274Z,55.72
2022-07-29T18:07:30.143Z,55.26
2022-07-29T18:12:31.570Z,53.03
2022-07-29T18:17:48.464Z,55.53
2022-07-29T18:22:54.453Z,53.60
2022-07-29T18:28:00.161Z,55.74
2022-07-29T18:38:23.359Z,56.71
2022-07-29T18:43:24.827Z,57.14
2022-07-29T18:48:26.277Z,56.77
2022-07-29T18:53:27.751Z,56.95
2022-07-29T18:58:29.209Z,57.72
2022-07-29T19:03:30.642Z,58.50
2022-07-29T19:08:32.081Z,58.11
2022-07-29T19:13:33.802Z,57.17
2022-07-29T19:18:35.196Z,57.16
2022-07-29T19:24:04.218Z,57.46
2022-07-29T19:28:58.174Z,57.26
2022-07-29T19:33:59.597Z,58.09
2022-07-29T19:39:01.298Z,58.43
2022-07-29T19:44:02.761Z,58.97
2022-07-29T19:49:06.507Z,58.98
2022-07-29T19:54:08.731Z,59.12
2022-07-29T19:59:10.918Z,61.93
2022-07-29T20:04:13.834Z,63.55
2022-07-29T20:09:16.852Z,64.04
2022-07-29T20:14:22.629Z,62.24
2022-07-29T20:19:24.105Z,63.69
2022-07-29T20:24:25.731Z,66.30
2022-07-29T20:29:27.155Z,63.24
2022-07-29T20:34:28.571Z,65.92
2022-07-29T20:39:30.336Z,62.64
2022-07-29T20:44:32.081Z,63.43
2022-07-29T20:49:33.550Z,65.28
2022-07-29T20:54:34.968Z,68.12
2022-07-29T20:59:36.586Z,66.99
2022-07-29T21:04:38.042Z,66.63
2022-07-29T21:09:39.434Z,61.98
2022-07-29T21:14:41.127Z,63.12
2022-07-29T21:19:42.962Z,66.86
2022-07-29T21:24:44.888Z,64.82
2022-07-29T21:29:46.322Z,68.50
2022-07-29T21:34:47.766Z,70.52
2022-07-29T21:39:49.823Z,68.99
2022-07-29T21:44:51.370Z,70.80
2022-07-29T21:49:52.907Z,71.55
2022-07-29T21:54:54.312Z,69.47
2022-07-29T21:59:58.465Z,68.43
2022-07-29T22:05:04.089Z,72.75
2022-07-29T22:10:06.083Z,71.06
2022-07-29T22:15:08.280Z,71.53
2022-07-29T22:20:10.207Z,71.29
2022-07-29T22:25:11.747Z,67.62
2022-07-29T22:30:13.504Z,69.25
2022-07-29T22:35:15.483Z,66.65
2022-07-29T22:40:16.934Z,67.42
2022-07-29T22:45:18.471Z,67.68
2022-07-29T22:50:19.919Z,70.11
2022-07-29T22:55:21.449Z,74.08
2022-07-29T23:00:22.889Z,66.56
2022-07-29T23:05:24.318Z,66.13
2022-07-29T23:10:25.849Z,67.66
2022-07-29T23:15:27.606Z,69.77
2022-07-29T23:20:29.050Z,73.99
2022-07-29T23:25:30.617Z,66.53
2022-07-29T23:30:32.512Z,72.92
2022-07-29T23:35:34.212Z,69.50
2022-07-29T23:40:35.768Z,69.93
2022-07-29T23:45:42.478Z,71.45
2022-07-29T23:50:45.874Z,70.70
2022-07-29T23:55:47.300Z,69.84
